Sodus, MI (49126)

2:37 PM EST on February 21, 2017 (GMT -0500)
Royal Circle | | Change Station

Elev 630 ft 42.04 °N, 86.43 °W | Updated 22 seconds ago

Overcast
Overcast
61.9 °F
Feels Like 61.9 °F
N
4.0
Wind Variable Wind from West

Today
High -- | Low -- °F
--% Chance of Precip.
Yesterday
High -- | Low -- °F
Precip. -- in
Pressure 29.93 in
Visibility 6.0 miles
Clouds Mostly Cloudy 2900 ft
Overcast 3300 ft
Dew Point 54 °F
Humidity 75%
Rainfall 0.23 in
Snow Depth Not available.
7:32 AM 6:26 PM
Waning Crescent, 23% visible
SPECI KBEH 211930Z AUTO 29007KT 6SM HZ BKN029 OVC033 14/11 A2993 RMK AO2 T01390111
Pressure 29.93 in
Visibility 6.0 miles
Clouds Mostly Cloudy 2900 ft
Overcast 3300 ft
Dew Point 54 °F
Humidity 75%
Rainfall 0.23 in
Snow Depth Not available.
7:32 AM 6:26 PM
Waning Crescent, 23% visible
SPECI KBEH 211930Z AUTO 29007KT 6SM HZ BKN029 OVC033 14/11 A2993 RMK AO2 T01390111

Get Your Daily Forecast Email!

Thanks for signing up!

Be on the lookout for a verification email in your inbox.

You'll start receiving the daily forecast at 8 AM.

×

10-Day Weather Forecast

Almanac

Astronomy

Feb. 21, 2017 Rise Set
Actual Time
Civil Twilight
Nautical Twilight
Astronomical Twilight
Moon
Length of Visible Light
Length of Day
Tomorrow will be .
, % of the Moon is Illuminated

Today's Extremes

State Highs State Lows

Community

WunderPhotos

Upload Photos

1,962,540 photos uploaded!

WunderBlog® & News

Nearby

Air Quality

  Air Quality AQ Index Pollutant
Not available.

Snow Depth

Station Depth Elevation

Earthquake Activity

City Distance Mag. Time & Date
Minimum magnitude displayed is 2.5.

Coastal Water Temperatures

Place Temperature

Stations

Nearby Weather Stations

Station Location Temp. Windchill Dew Point Humidity Wind Precip. Elev Updated Type
                   

Watches & Warnings

There are currently no watches in effect.